sensor_id;sensor_type;location;lat;lon;timestamp;pressure;altitude;pressure_sealevel;temperature;humidity
40490;BME280;26196;52.302;10.572;2022-12-29T00:01:43;99499.38;;;12.74;58.04
40490;BME280;26196;52.302;10.572;2022-12-29T00:05:43;99486.25;;;12.74;57.87
40490;BME280;26196;52.302;10.572;2022-12-29T00:09:44;99488.88;;;12.74;57.73
40490;BME280;26196;52.302;10.572;2022-12-29T00:13:44;99490.56;;;12.75;58.12
40490;BME280;26196;52.302;10.572;2022-12-29T00:18:04;99472.34;;;12.72;57.82
40490;BME280;26196;52.302;10.572;2022-12-29T00:22:04;99460.75;;;12.76;57.95
40490;BME280;26196;52.302;10.572;2022-12-29T00:26:23;99458.03;;;12.77;58.65
40490;BME280;26196;52.302;10.572;2022-12-29T00:30:42;99459.03;;;12.75;58.19
40490;BME280;26196;52.302;10.572;2022-12-29T00:35:01;99453.06;;;12.73;58.24
40490;BME280;26196;52.302;10.572;2022-12-29T00:39:16;99452.88;;;12.76;57.64
40490;BME280;26196;52.302;10.572;2022-12-29T00:43:37;99458.31;;;12.73;57.91
40490;BME280;26196;52.302;10.572;2022-12-29T00:47:56;99457.28;;;12.75;58.29
40490;BME280;26196;52.302;10.572;2022-12-29T00:55:58;99448.63;;;12.73;57.81
40490;BME280;26196;52.302;10.572;2022-12-29T00:59:58;99449.25;;;12.78;57.91
40490;BME280;26196;52.302;10.572;2022-12-29T01:03:59;99445.78;;;12.78;58.49
40490;BME280;26196;52.302;10.572;2022-12-29T01:07:59;99431.63;;;12.80;58.68
40490;BME280;26196;52.302;10.572;2022-12-29T01:12:00;99439.59;;;12.79;58.64
40490;BME280;26196;52.302;10.572;2022-12-29T01:16:01;99439.59;;;12.79;57.93
40490;BME280;26196;52.302;10.572;2022-12-29T01:20:02;99435.28;;;12.78;58.41
40490;BME280;26196;52.302;10.572;2022-12-29T01:24:03;99437.03;;;12.77;57.77
40490;BME280;26196;52.302;10.572;2022-12-29T01:28:04;99435.59;;;12.72;58.13
40490;BME280;26196;52.302;10.572;2022-12-29T01:32:04;99422.38;;;12.73;58.16
40490;BME280;26196;52.302;10.572;2022-12-29T01:36:08;99433.50;;;12.78;58.57
40490;BME280;26196;52.302;10.572;2022-12-29T01:40:09;99423.75;;;12.80;57.58
40490;BME280;26196;52.302;10.572;2022-12-29T01:48:48;99413.50;;;12.76;57.49
40490;BME280;26196;52.302;10.572;2022-12-29T01:57:13;99397.41;;;12.82;58.06
40490;BME280;26196;52.302;10.572;2022-12-29T02:01:18;99394.16;;;12.77;57.72
40490;BME280;26196;52.302;10.572;2022-12-29T02:05:38;99388.84;;;12.78;58.25
40490;BME280;26196;52.302;10.572;2022-12-29T02:09:42;99381.88;;;12.77;57.36
40490;BME280;26196;52.302;10.572;2022-12-29T02:13:42;99376.56;;;12.79;57.23
40490;BME280;26196;52.302;10.572;2022-12-29T02:31:08;99356.66;;;12.75;57.15
40490;BME280;26196;52.302;10.572;2022-12-29T02:35:18;99352.94;;;12.79;57.37
40490;BME280;26196;52.302;10.572;2022-12-29T02:39:26;99346.00;;;12.78;57.31
40490;BME280;26196;52.302;10.572;2022-12-29T02:52:01;99337.41;;;12.74;56.89
40490;BME280;26196;52.302;10.572;2022-12-29T02:56:02;99352.56;;;12.69;56.67
40490;BME280;26196;52.302;10.572;2022-12-29T03:04:26;99334.13;;;12.70;57.81
40490;BME280;26196;52.302;10.572;2022-12-29T03:08:43;99333.78;;;12.77;57.61
40490;BME280;26196;52.302;10.572;2022-12-29T03:13:01;99331.09;;;12.78;57.75
40490;BME280;26196;52.302;10.572;2022-12-29T03:17:27;99312.00;;;12.75;57.39
40490;BME280;26196;52.302;10.572;2022-12-29T03:21:39;99322.44;;;12.76;57.26
40490;BME280;26196;52.302;10.572;2022-12-29T03:26:01;99319.81;;;12.76;57.13
40490;BME280;26196;52.302;10.572;2022-12-29T03:30:05;99311.28;;;12.73;57.31
40490;BME280;26196;52.302;10.572;2022-12-29T03:34:07;99317.25;;;12.75;57.79
40490;BME280;26196;52.302;10.572;2022-12-29T03:38:25;99302.28;;;12.77;57.62
40490;BME280;26196;52.302;10.572;2022-12-29T03:42:27;99299.75;;;12.75;57.72
40490;BME280;26196;52.302;10.572;2022-12-29T03:46:30;99298.72;;;12.78;57.55
40490;BME280;26196;52.302;10.572;2022-12-29T03:50:31;99280.50;;;12.75;58.03
40490;BME280;26196;52.302;10.572;2022-12-29T03:54:32;99276.78;;;12.79;57.73
40490;BME280;26196;52.302;10.572;2022-12-29T03:58:32;99282.81;;;12.81;57.80
40490;BME280;26196;52.302;10.572;2022-12-29T04:02:32;99272.47;;;12.78;58.36
40490;BME280;26196;52.302;10.572;2022-12-29T04:06:34;99264.09;;;12.71;57.57
40490;BME280;26196;52.302;10.572;2022-12-29T04:10:35;99272.78;;;12.72;57.31
40490;BME280;26196;52.302;10.572;2022-12-29T04:14:35;99280.59;;;12.73;58.10
40490;BME280;26196;52.302;10.572;2022-12-29T04:18:35;99280.34;;;12.78;57.86
40490;BME280;26196;52.302;10.572;2022-12-29T04:22:35;99267.53;;;12.72;57.72
40490;BME280;26196;52.302;10.572;2022-12-29T04:26:36;99257.88;;;12.72;57.81
40490;BME280;26196;52.302;10.572;2022-12-29T04:30:36;99253.22;;;12.77;57.70
40490;BME280;26196;52.302;10.572;2022-12-29T04:34:36;99252.38;;;12.77;57.75
40490;BME280;26196;52.302;10.572;2022-12-29T04:38:37;99262.03;;;12.76;57.93
40490;BME280;26196;52.302;10.572;2022-12-29T04:42:37;99258.59;;;12.76;58.40
40490;BME280;26196;52.302;10.572;2022-12-29T04:46:37;99268.84;;;12.80;58.58
40490;BME280;26196;52.302;10.572;2022-12-29T04:50:39;99266.22;;;12.80;58.43
40490;BME280;26196;52.302;10.572;2022-12-29T04:54:39;99243.59;;;12.78;59.03
40490;BME280;26196;52.302;10.572;2022-12-29T04:58:40;99253.81;;;12.82;59.04
40490;BME280;26196;52.302;10.572;2022-12-29T05:02:41;99264.41;;;12.81;59.11
40490;BME280;26196;52.302;10.572;2022-12-29T05:06:41;99256.44;;;12.82;58.46
40490;BME280;26196;52.302;10.572;2022-12-29T05:10:44;99260.97;;;12.80;58.76
40490;BME280;26196;52.302;10.572;2022-12-29T05:14:45;99260.84;;;12.82;59.11
40490;BME280;26196;52.302;10.572;2022-12-29T05:18:45;99256.19;;;12.87;59.08
40490;BME280;26196;52.302;10.572;2022-12-29T05:22:46;99257.72;;;12.91;58.90
40490;BME280;26196;52.302;10.572;2022-12-29T05:26:46;99257.97;;;12.86;58.84
40490;BME280;26196;52.302;10.572;2022-12-29T05:30:50;99256.19;;;12.87;58.66
40490;BME280;26196;52.302;10.572;2022-12-29T05:34:51;99262.28;;;12.87;58.32
40490;BME280;26196;52.302;10.572;2022-12-29T05:38:51;99238.34;;;12.78;58.55
40490;BME280;26196;52.302;10.572;2022-12-29T05:42:51;99253.50;;;12.88;58.94
40490;BME280;26196;52.302;10.572;2022-12-29T05:46:52;99255.09;;;12.91;58.87
40490;BME280;26196;52.302;10.572;2022-12-29T05:50:52;99244.59;;;12.91;58.81
40490;BME280;26196;52.302;10.572;2022-12-29T05:54:52;99252.38;;;12.92;58.95
40490;BME280;26196;52.302;10.572;2022-12-29T05:58:53;99243.56;;;12.94;58.54
40490;BME280;26196;52.302;10.572;2022-12-29T06:02:53;99237.38;;;12.95;58.98
40490;BME280;26196;52.302;10.572;2022-12-29T06:06:53;99247.03;;;12.94;58.30
40490;BME280;26196;52.302;10.572;2022-12-29T06:10:54;99245.34;;;12.93;58.83
40490;BME280;26196;52.302;10.572;2022-12-29T06:14:54;99236.72;;;12.91;58.09
40490;BME280;26196;52.302;10.572;2022-12-29T06:18:54;99235.75;;;12.92;58.07
40490;BME280;26196;52.302;10.572;2022-12-29T06:22:55;99245.50;;;12.90;58.36
40490;BME280;26196;52.302;10.572;2022-12-29T06:26:55;99239.34;;;12.91;58.36
40490;BME280;26196;52.302;10.572;2022-12-29T06:30:55;99242.13;;;12.88;58.13
40490;BME280;26196;52.302;10.572;2022-12-29T06:34:57;99242.13;;;12.88;58.63
40490;BME280;26196;52.302;10.572;2022-12-29T06:38:57;99239.50;;;12.88;58.55
40490;BME280;26196;52.302;10.572;2022-12-29T06:42:58;99228.06;;;12.89;59.09
40490;BME280;26196;52.302;10.572;2022-12-29T06:46:58;99235.34;;;12.84;58.62
40490;BME280;26196;52.302;10.572;2022-12-29T06:50:58;99228.44;;;12.83;58.39
40490;BME280;26196;52.302;10.572;2022-12-29T06:54:59;99224.34;;;12.77;59.35
40490;BME280;26196;52.302;10.572;2022-12-29T06:58:59;99233.81;;;12.80;59.46
40490;BME280;26196;52.302;10.572;2022-12-29T07:03:03;99232.72;;;12.84;59.07
40490;BME280;26196;52.302;10.572;2022-12-29T07:07:03;99226.91;;;12.79;59.54
40490;BME280;26196;52.302;10.572;2022-12-29T07:11:04;99220.88;;;12.77;59.20
40490;BME280;26196;52.302;10.572;2022-12-29T07:15:05;99204.53;;;12.72;59.17
40490;BME280;26196;52.302;10.572;2022-12-29T07:19:05;99207.09;;;12.73;58.96
40490;BME280;26196;52.302;10.572;2022-12-29T07:23:06;99216.75;;;12.73;59.75
40490;BME280;26196;52.302;10.572;2022-12-29T07:27:06;99236.56;;;12.78;59.59
40490;BME280;26196;52.302;10.572;2022-12-29T07:31:13;99239.84;;;12.82;59.40
40490;BME280;26196;52.302;10.572;2022-12-29T07:35:15;99240.59;;;12.84;59.15
40490;BME280;26196;52.302;10.572;2022-12-29T07:39:15;99233.09;;;12.78;59.01
40490;BME280;26196;52.302;10.572;2022-12-29T07:43:15;99224.84;;;12.84;59.29
40490;BME280;26196;52.302;10.572;2022-12-29T07:47:16;99223.00;;;12.86;59.54
40490;BME280;26196;52.302;10.572;2022-12-29T07:51:16;99220.38;;;12.86;59.88
40490;BME280;26196;52.302;10.572;2022-12-29T07:55:16;99227.56;;;12.82;59.76
40490;BME280;26196;52.302;10.572;2022-12-29T07:59:17;99237.22;;;12.82;59.42
40490;BME280;26196;52.302;10.572;2022-12-29T08:03:17;99245.88;;;12.84;59.90
40490;BME280;26196;52.302;10.572;2022-12-29T08:07:17;99259.75;;;12.86;58.96
40490;BME280;26196;52.302;10.572;2022-12-29T08:11:18;99281.53;;;12.88;59.38
40490;BME280;26196;52.302;10.572;2022-12-29T08:15:18;99269.72;;;12.95;59.63
40490;BME280;26196;52.302;10.572;2022-12-29T08:19:19;99270.41;;;12.99;59.47
40490;BME280;26196;52.302;10.572;2022-12-29T08:23:19;99270.25;;;13.02;60.04
40490;BME280;26196;52.302;10.572;2022-12-29T08:27:20;99295.66;;;13.01;60.16
40490;BME280;26196;52.302;10.572;2022-12-29T08:31:20;99300.91;;;13.01;59.76
40490;BME280;26196;52.302;10.572;2022-12-29T08:35:21;99312.75;;;13.08;59.97
40490;BME280;26196;52.302;10.572;2022-12-29T08:39:21;99311.72;;;13.11;59.78
40490;BME280;26196;52.302;10.572;2022-12-29T08:43:22;99300.31;;;13.12;60.57
40490;BME280;26196;52.302;10.572;2022-12-29T08:47:22;99303.00;;;13.10;59.71
40490;BME280;26196;52.302;10.572;2022-12-29T08:51:22;99301.91;;;13.14;59.42
40490;BME280;26196;52.302;10.572;2022-12-29T08:55:23;99291.41;;;13.14;59.65
40490;BME280;26196;52.302;10.572;2022-12-29T08:59:23;99292.91;;;13.19;59.62
40490;BME280;26196;52.302;10.572;2022-12-29T09:03:24;99288.59;;;13.18;60.16
40490;BME280;26196;52.302;10.572;2022-12-29T09:07:25;99276.22;;;13.20;59.89
40490;BME280;26196;52.302;10.572;2022-12-29T09:11:26;99279.34;;;13.26;59.92
40490;BME280;26196;52.302;10.572;2022-12-29T09:15:26;99284.59;;;13.26;60.41
40490;BME280;26196;52.302;10.572;2022-12-29T09:19:26;99287.31;;;13.25;60.02
40490;BME280;26196;52.302;10.572;2022-12-29T09:23:27;99286.63;;;13.21;60.07
40490;BME280;26196;52.302;10.572;2022-12-29T09:27:28;99287.50;;;13.22;59.75
40490;BME280;26196;52.302;10.572;2022-12-29T09:31:29;99313.78;;;13.22;59.90
40490;BME280;26196;52.302;10.572;2022-12-29T09:35:29;99318.78;;;13.26;59.83
40490;BME280;26196;52.302;10.572;2022-12-29T09:39:29;99350.22;;;13.28;60.98
40490;BME280;26196;52.302;10.572;2022-12-29T09:43:42;99355.81;;;13.22;60.99
40490;BME280;26196;52.302;10.572;2022-12-29T09:47:45;99374.78;;;13.27;61.38
40490;BME280;26196;52.302;10.572;2022-12-29T09:51:49;99349.50;;;13.24;62.00
40490;BME280;26196;52.302;10.572;2022-12-29T09:55:53;99370.53;;;13.24;61.63
40490;BME280;26196;52.302;10.572;2022-12-29T09:59:59;99341.56;;;13.26;60.82
40490;BME280;26196;52.302;10.572;2022-12-29T10:04:03;99347.44;;;13.31;61.28
40490;BME280;26196;52.302;10.572;2022-12-29T10:08:29;99351.59;;;13.35;60.19
40490;BME280;26196;52.302;10.572;2022-12-29T10:13:05;99344.34;;;13.39;60.02
40490;BME280;26196;52.302;10.572;2022-12-29T10:17:31;99345.13;;;13.41;60.08
40490;BME280;26196;52.302;10.572;2022-12-29T10:25:41;99331.97;;;13.41;59.66
40490;BME280;26196;52.302;10.572;2022-12-29T10:29:50;99326.72;;;13.41;59.75
40490;BME280;26196;52.302;10.572;2022-12-29T10:33:57;99324.75;;;13.44;60.13
40490;BME280;26196;52.302;10.572;2022-12-29T10:38:02;99345.28;;;13.53;59.72
40490;BME280;26196;52.302;10.572;2022-12-29T10:42:25;99342.53;;;13.55;59.99
40490;BME280;26196;52.302;10.572;2022-12-29T10:46:33;99336.25;;;13.57;60.37
40490;BME280;26196;52.302;10.572;2022-12-29T10:50:36;99334.31;;;13.61;59.98
40490;BME280;26196;52.302;10.572;2022-12-29T10:54:49;99344.72;;;13.63;59.74
40490;BME280;26196;52.302;10.572;2022-12-29T10:58:54;99333.28;;;13.64;59.93
40490;BME280;26196;52.302;10.572;2022-12-29T11:07:16;99347.53;;;13.60;59.55
40490;BME280;26196;52.302;10.572;2022-12-29T11:11:32;99341.44;;;13.59;60.25
40490;BME280;26196;52.302;10.572;2022-12-29T11:15:45;99332.69;;;13.59;59.74
40490;BME280;26196;52.302;10.572;2022-12-29T11:19:46;99329.13;;;13.60;60.34
40490;BME280;26196;52.302;10.572;2022-12-29T11:23:59;99343.22;;;13.59;61.11
40490;BME280;26196;52.302;10.572;2022-12-29T11:32:11;99329.13;;;13.60;60.44
40490;BME280;26196;52.302;10.572;2022-12-29T11:36:16;99349.06;;;13.64;60.72
40490;BME280;26196;52.302;10.572;2022-12-29T11:40:19;99351.69;;;13.64;60.90
40490;BME280;26196;52.302;10.572;2022-12-29T11:44:20;99338.53;;;13.64;59.58
40490;BME280;26196;52.302;10.572;2022-12-29T11:48:21;99339.47;;;13.63;60.70
40490;BME280;26196;52.302;10.572;2022-12-29T11:52:24;99336.63;;;13.66;60.66
40490;BME280;26196;52.302;10.572;2022-12-29T11:56:38;99350.56;;;13.68;60.10
40490;BME280;26196;52.302;10.572;2022-12-29T12:00:39;99357.88;;;13.63;60.96
40490;BME280;26196;52.302;10.572;2022-12-29T12:04:41;99373.38;;;13.67;61.03
40490;BME280;26196;52.302;10.572;2022-12-29T12:08:53;99378.72;;;13.66;61.52
40490;BME280;26196;52.302;10.572;2022-12-29T12:18:00;99387.28;;;13.69;61.87
40490;BME280;26196;52.302;10.572;2022-12-29T12:21:52;99382.88;;;13.70;61.32
40490;BME280;26196;52.302;10.572;2022-12-29T12:30:24;99388.78;;;13.73;61.51
40490;BME280;26196;52.302;10.572;2022-12-29T12:38:44;99381.22;;;13.83;61.27
40490;BME280;26196;52.302;10.572;2022-12-29T12:55:49;99380.28;;;13.84;60.88
40490;BME280;26196;52.302;10.572;2022-12-29T12:59:56;99386.22;;;13.88;60.66
40490;BME280;26196;52.302;10.572;2022-12-29T13:09:03;99388.66;;;13.91;60.63
40490;BME280;26196;52.302;10.572;2022-12-29T13:26:26;99396.88;;;14.00;59.98
40490;BME280;26196;52.302;10.572;2022-12-29T13:30:36;99399.22;;;14.05;59.88
40490;BME280;26196;52.302;10.572;2022-12-29T13:34:45;99398.38;;;14.05;59.97
40490;BME280;26196;52.302;10.572;2022-12-29T13:38:54;99396.31;;;14.10;58.93
40490;BME280;26196;52.302;10.572;2022-12-29T13:43:01;99410.50;;;14.07;61.45
40490;BME280;26196;52.302;10.572;2022-12-29T13:47:13;99407.28;;;14.02;61.60
40490;BME280;26196;52.302;10.572;2022-12-29T13:51:16;99410.22;;;13.97;61.83
40490;BME280;26196;52.302;10.572;2022-12-29T14:04:11;99437.69;;;13.92;62.68
40490;BME280;26196;52.302;10.572;2022-12-29T14:08:17;99433.97;;;13.96;62.06
40490;BME280;26196;52.302;10.572;2022-12-29T14:12:35;99449.81;;;13.94;62.32
40490;BME280;26196;52.302;10.572;2022-12-29T14:16:36;99454.44;;;13.91;62.36
40490;BME280;26196;52.302;10.572;2022-12-29T14:20:38;99464.88;;;13.92;62.70
40490;BME280;26196;52.302;10.572;2022-12-29T14:24:44;99477.84;;;13.95;61.16
40490;BME280;26196;52.302;10.572;2022-12-29T14:28:49;99479.72;;;13.93;62.18
40490;BME280;26196;52.302;10.572;2022-12-29T14:33:10;99480.06;;;13.87;62.42
40490;BME280;26196;52.302;10.572;2022-12-29T14:37:24;99488.88;;;13.86;62.60
40490;BME280;26196;52.302;10.572;2022-12-29T14:41:35;99502.81;;;13.88;61.46
40490;BME280;26196;52.302;10.572;2022-12-29T14:45:40;99505.34;;;13.90;61.33
40490;BME280;26196;52.302;10.572;2022-12-29T14:49:44;99505.34;;;13.90;61.15
40490;BME280;26196;52.302;10.572;2022-12-29T14:53:50;99523.00;;;13.88;61.24
40490;BME280;26196;52.302;10.572;2022-12-29T14:57:57;99510.94;;;13.84;60.74
40490;BME280;26196;52.302;10.572;2022-12-29T15:02:01;99505.03;;;13.80;60.99
40490;BME280;26196;52.302;10.572;2022-12-29T15:06:08;99504.44;;;13.75;60.70
40490;BME280;26196;52.302;10.572;2022-12-29T15:10:14;99526.06;;;13.80;61.31
40490;BME280;26196;52.302;10.572;2022-12-29T15:14:56;99537.25;;;13.84;59.71
40490;BME280;26196;52.302;10.572;2022-12-29T15:18:57;99525.03;;;13.83;58.61
40490;BME280;26196;52.302;10.572;2022-12-29T15:23:02;99542.84;;;13.77;60.14
40490;BME280;26196;52.302;10.572;2022-12-29T15:27:03;99539.47;;;13.75;59.55
40490;BME280;26196;52.302;10.572;2022-12-29T15:31:10;99545.97;;;13.68;59.83
40490;BME280;26196;52.302;10.572;2022-12-29T15:39:29;99552.19;;;13.67;59.94
40490;BME280;26196;52.302;10.572;2022-12-29T15:43:43;99566.94;;;13.70;60.61
40490;BME280;26196;52.302;10.572;2022-12-29T15:47:49;99576.63;;;13.69;60.18
40490;BME280;26196;52.302;10.572;2022-12-29T15:51:53;99581.78;;;13.71;59.88
40490;BME280;26196;52.302;10.572;2022-12-29T15:56:16;99583.41;;;13.73;60.22
40490;BME280;26196;52.302;10.572;2022-12-29T16:00:32;99585.44;;;13.68;60.24
40490;BME280;26196;52.302;10.572;2022-12-29T16:04:33;99596.66;;;13.72;59.77
40490;BME280;26196;52.302;10.572;2022-12-29T16:08:36;99603.59;;;13.73;59.91
40490;BME280;26196;52.302;10.572;2022-12-29T16:12:40;99596.81;;;13.69;60.68
40490;BME280;26196;52.302;10.572;2022-12-29T16:16:41;99609.03;;;13.70;59.86
40490;BME280;26196;52.302;10.572;2022-12-29T16:20:43;99602.16;;;13.67;60.33
40490;BME280;26196;52.302;10.572;2022-12-29T16:24:43;99614.47;;;13.67;60.08
40490;BME280;26196;52.302;10.572;2022-12-29T16:28:48;99627.69;;;13.65;60.25
40490;BME280;26196;52.302;10.572;2022-12-29T16:32:56;99626.34;;;13.74;59.45
40490;BME280;26196;52.302;10.572;2022-12-29T16:37:02;99631.00;;;13.69;60.43
40490;BME280;26196;52.302;10.572;2022-12-29T16:41:03;99637.34;;;13.65;60.06
40490;BME280;26196;52.302;10.572;2022-12-29T16:49:19;99619.00;;;13.63;60.32
40490;BME280;26196;52.302;10.572;2022-12-29T16:53:20;99633.78;;;13.66;61.01
40490;BME280;26196;52.302;10.572;2022-12-29T16:57:28;99639.03;;;13.66;61.08
40490;BME280;26196;52.302;10.572;2022-12-29T17:01:30;99635.50;;;13.67;60.91
40490;BME280;26196;52.302;10.572;2022-12-29T17:05:31;99633.78;;;13.66;61.27
40490;BME280;26196;52.302;10.572;2022-12-29T17:09:31;99640.25;;;13.76;60.47
40490;BME280;26196;52.302;10.572;2022-12-29T17:13:31;99647.22;;;13.77;61.37
40490;BME280;26196;52.302;10.572;2022-12-29T17:21:36;99658.06;;;13.71;61.02
40490;BME280;26196;52.302;10.572;2022-12-29T17:25:37;99649.41;;;13.69;61.21
40490;BME280;26196;52.302;10.572;2022-12-29T17:29:39;99652.91;;;13.69;61.06
40490;BME280;26196;52.302;10.572;2022-12-29T17:33:41;99659.78;;;13.72;61.10
40490;BME280;26196;52.302;10.572;2022-12-29T17:37:42;99654.34;;;13.75;60.51
40490;BME280;26196;52.302;10.572;2022-12-29T17:41:43;99638.63;;;13.73;60.39
40490;BME280;26196;52.302;10.572;2022-12-29T17:45:46;99659.59;;;13.75;61.12
40490;BME280;26196;52.302;10.572;2022-12-29T17:49:48;99665.88;;;13.72;60.95
40490;BME280;26196;52.302;10.572;2022-12-29T17:53:49;99662.31;;;13.73;60.85
40490;BME280;26196;52.302;10.572;2022-12-29T17:57:51;99657.91;;;13.74;60.73
40490;BME280;26196;52.302;10.572;2022-12-29T18:01:51;99660.63;;;13.72;60.99
40490;BME280;26196;52.302;10.572;2022-12-29T18:05:52;99654.69;;;13.69;61.14
40490;BME280;26196;52.302;10.572;2022-12-29T18:09:53;99665.03;;;13.72;61.17
40490;BME280;26196;52.302;10.572;2022-12-29T18:13:54;99659.94;;;13.69;60.96
40490;BME280;26196;52.302;10.572;2022-12-29T18:18:10;99659.94;;;13.69;61.04
40490;BME280;26196;52.302;10.572;2022-12-29T18:22:11;99671.31;;;13.69;60.50
40490;BME280;26196;52.302;10.572;2022-12-29T18:26:18;99659.16;;;13.67;61.32
40490;BME280;26196;52.302;10.572;2022-12-29T18:30:19;99659.94;;;13.69;60.97
40490;BME280;26196;52.302;10.572;2022-12-29T18:34:20;99658.06;;;13.71;60.91
40490;BME280;26196;52.302;10.572;2022-12-29T18:38:21;99652.13;;;13.67;60.84
40490;BME280;26196;52.302;10.572;2022-12-29T18:42:21;99649.56;;;13.66;60.70
40490;BME280;26196;52.302;10.572;2022-12-29T18:46:22;99658.22;;;13.68;60.92
40490;BME280;26196;52.302;10.572;2022-12-29T18:50:22;99663.47;;;13.68;60.81
40490;BME280;26196;52.302;10.572;2022-12-29T18:54:30;99673.00;;;13.70;60.78
40490;BME280;26196;52.302;10.572;2022-12-29T18:58:31;99650.25;;;13.53;61.03
40490;BME280;26196;52.302;10.572;2022-12-29T19:02:31;99660.94;;;13.66;61.08
40490;BME280;26196;52.302;10.572;2022-12-29T19:06:34;99662.81;;;13.64;60.93
40490;BME280;26196;52.302;10.572;2022-12-29T19:10:36;99671.97;;;13.73;60.63
40490;BME280;26196;52.302;10.572;2022-12-29T19:14:36;99664.09;;;13.73;60.36
40490;BME280;26196;52.302;10.572;2022-12-29T19:18:36;99677.25;;;13.73;61.09
40490;BME280;26196;52.302;10.572;2022-12-29T19:22:37;99674.59;;;13.73;60.89
40490;BME280;26196;52.302;10.572;2022-12-29T19:26:39;99663.47;;;13.68;60.59
40490;BME280;26196;52.302;10.572;2022-12-29T19:30:39;99663.31;;;13.71;59.98
40490;BME280;26196;52.302;10.572;2022-12-29T19:34:40;99664.50;;;13.81;59.21
40490;BME280;26196;52.302;10.572;2022-12-29T19:38:41;99663.75;;;13.79;59.35
40490;BME280;26196;52.302;10.572;2022-12-29T19:42:41;99676.31;;;13.74;59.98
40490;BME280;26196;52.302;10.572;2022-12-29T19:46:42;99663.66;;;13.65;60.82
40490;BME280;26196;52.302;10.572;2022-12-29T19:50:42;99680.19;;;13.67;60.43
40490;BME280;26196;52.302;10.572;2022-12-29T19:54:43;99689.88;;;13.66;60.42
40490;BME280;26196;52.302;10.572;2022-12-29T19:58:43;99691.63;;;13.66;60.63
40490;BME280;26196;52.302;10.572;2022-12-29T20:02:44;99695.22;;;13.65;60.90
40490;BME280;26196;52.302;10.572;2022-12-29T20:06:44;99684.94;;;13.60;60.28
40490;BME280;26196;52.302;10.572;2022-12-29T20:10:44;99709.03;;;13.68;60.76
40490;BME280;26196;52.302;10.572;2022-12-29T20:14:45;99698.63;;;13.67;61.02
40490;BME280;26196;52.302;10.572;2022-12-29T20:18:46;99707.34;;;13.67;61.02
40490;BME280;26196;52.302;10.572;2022-12-29T20:22:47;99708.28;;;13.66;60.22
40490;BME280;26196;52.302;10.572;2022-12-29T20:26:48;99719.66;;;13.67;60.86
40490;BME280;26196;52.302;10.572;2022-12-29T20:31:07;99723.97;;;13.68;60.84
40490;BME280;26196;52.302;10.572;2022-12-29T20:35:12;99724.91;;;13.67;60.71
40490;BME280;26196;52.302;10.572;2022-12-29T20:39:16;99729.41;;;13.65;60.32
40490;BME280;26196;52.302;10.572;2022-12-29T20:43:16;99742.53;;;13.65;60.36
40490;BME280;26196;52.302;10.572;2022-12-29T20:47:17;99743.53;;;13.62;60.59
40490;BME280;26196;52.302;10.572;2022-12-29T20:51:18;99760.34;;;13.60;60.05
40490;BME280;26196;52.302;10.572;2022-12-29T20:55:20;99766.53;;;13.59;59.23
40490;BME280;26196;52.302;10.572;2022-12-29T20:59:20;99773.81;;;13.53;59.09
40490;BME280;26196;52.302;10.572;2022-12-29T21:03:21;99785.63;;;13.45;58.71
40490;BME280;26196;52.302;10.572;2022-12-29T21:07:22;99791.97;;;13.41;58.08
40490;BME280;26196;52.302;10.572;2022-12-29T21:11:22;99803.34;;;13.41;57.94
40490;BME280;26196;52.302;10.572;2022-12-29T21:15:23;99811.00;;;13.46;58.39
40490;BME280;26196;52.302;10.572;2022-12-29T21:19:23;99807.59;;;13.44;58.47
40490;BME280;26196;52.302;10.572;2022-12-29T21:23:24;99790.25;;;13.40;57.97
40490;BME280;26196;52.302;10.572;2022-12-29T21:27:25;99801.66;;;13.40;58.34
40490;BME280;26196;52.302;10.572;2022-12-29T21:31:31;99804.34;;;13.39;58.17
40490;BME280;26196;52.302;10.572;2022-12-29T21:35:36;99812.28;;;13.37;58.85
40490;BME280;26196;52.302;10.572;2022-12-29T21:39:37;99814.06;;;13.37;58.09
40490;BME280;26196;52.302;10.572;2022-12-29T21:43:38;99825.53;;;13.35;58.54
40490;BME280;26196;52.302;10.572;2022-12-29T21:47:38;99821.13;;;13.36;58.78
40490;BME280;26196;52.302;10.572;2022-12-29T21:51:57;99824.81;;;13.32;58.31
40490;BME280;26196;52.302;10.572;2022-12-29T21:55:57;99835.19;;;13.35;58.20
40490;BME280;26196;52.302;10.572;2022-12-29T21:59:58;99840.56;;;13.32;57.93
40490;BME280;26196;52.302;10.572;2022-12-29T22:04:19;99852.81;;;13.33;58.39
40490;BME280;26196;52.302;10.572;2022-12-29T22:08:38;99865.16;;;13.31;59.08
40490;BME280;26196;52.302;10.572;2022-12-29T22:13:00;99869.50;;;13.32;58.96
40490;BME280;26196;52.302;10.572;2022-12-29T22:17:02;99861.75;;;13.29;59.02
40490;BME280;26196;52.302;10.572;2022-12-29T22:21:06;99869.75;;;13.27;58.04
40490;BME280;26196;52.302;10.572;2022-12-29T22:25:07;99867.81;;;13.31;58.52
40490;BME280;26196;52.302;10.572;2022-12-29T22:29:08;99876.69;;;13.28;58.47
40490;BME280;26196;52.302;10.572;2022-12-29T22:33:08;99881.78;;;13.31;58.53
40490;BME280;26196;52.302;10.572;2022-12-29T22:37:09;99879.09;;;13.33;58.20
40490;BME280;26196;52.302;10.572;2022-12-29T22:41:09;99876.25;;;13.38;58.37
40490;BME280;26196;52.302;10.572;2022-12-29T22:45:10;99884.66;;;13.44;57.30
40490;BME280;26196;52.302;10.572;2022-12-29T22:49:11;99886.78;;;13.38;58.42
40490;BME280;26196;52.302;10.572;2022-12-29T22:53:11;99888.09;;;13.46;57.26
40490;BME280;26196;52.302;10.572;2022-12-29T22:57:11;99890.16;;;13.40;57.99
40490;BME280;26196;52.302;10.572;2022-12-29T23:01:14;99900.44;;;13.44;57.57
40490;BME280;26196;52.302;10.572;2022-12-29T23:05:15;99891.03;;;13.40;57.60
40490;BME280;26196;52.302;10.572;2022-12-29T23:09:17;99894.56;;;13.39;57.53
40490;BME280;26196;52.302;10.572;2022-12-29T23:13:18;99894.72;;;13.36;56.55